sensor_id;sensor_type;location;lat;lon;timestamp;temperature;humidity
12434;DHT22;6281;49.038;8.372;2023-04-08T00:00:32;9.90;99.90
12434;DHT22;6281;49.038;8.372;2023-04-08T00:03:00;10.00;99.90
12434;DHT22;6281;49.038;8.372;2023-04-08T00:05:27;9.90;99.90
12434;DHT22;6281;49.038;8.372;2023-04-08T00:07:54;9.80;99.90
12434;DHT22;6281;49.038;8.372;2023-04-08T00:10:21;9.90;99.90
12434;DHT22;6281;49.038;8.372;2023-04-08T00:12:49;9.90;99.90
12434;DHT22;6281;49.038;8.372;2023-04-08T00:15:16;9.90;99.90
12434;DHT22;6281;49.038;8.372;2023-04-08T00:17:44;9.80;99.90
12434;DHT22;6281;49.038;8.372;2023-04-08T00:20:12;9.80;99.90
12434;DHT22;6281;49.038;8.372;2023-04-08T00:22:40;9.80;99.90
12434;DHT22;6281;49.038;8.372;2023-04-08T00:25:07;9.80;99.90
12434;DHT22;6281;49.038;8.372;2023-04-08T00:27:34;9.80;99.90
12434;DHT22;6281;49.038;8.372;2023-04-08T00:30:01;9.80;99.90
12434;DHT22;6281;49.038;8.372;2023-04-08T00:32:28;9.80;99.90
12434;DHT22;6281;49.038;8.372;2023-04-08T00:34:56;9.80;99.90
12434;DHT22;6281;49.038;8.372;2023-04-08T00:37:23;9.60;99.90
12434;DHT22;6281;49.038;8.372;2023-04-08T00:39:50;9.70;99.90
12434;DHT22;6281;49.038;8.372;2023-04-08T00:42:18;9.70;99.90
12434;DHT22;6281;49.038;8.372;2023-04-08T00:44:46;9.60;99.90
12434;DHT22;6281;49.038;8.372;2023-04-08T00:47:13;9.70;99.90
12434;DHT22;6281;49.038;8.372;2023-04-08T00:49:41;9.70;99.90
12434;DHT22;6281;49.038;8.372;2023-04-08T00:52:10;9.60;99.90
12434;DHT22;6281;49.038;8.372;2023-04-08T00:54:37;9.60;99.90
12434;DHT22;6281;49.038;8.372;2023-04-08T00:57:04;9.70;99.90
12434;DHT22;6281;49.038;8.372;2023-04-08T00:59:32;9.60;99.90
12434;DHT22;6281;49.038;8.372;2023-04-08T01:02:06;9.70;99.90
12434;DHT22;6281;49.038;8.372;2023-04-08T01:04:43;9.70;99.90
12434;DHT22;6281;49.038;8.372;2023-04-08T01:07:19;9.70;99.90
12434;DHT22;6281;49.038;8.372;2023-04-08T01:09:52;9.70;99.90
12434;DHT22;6281;49.038;8.372;2023-04-08T01:12:24;9.60;99.90
12434;DHT22;6281;49.038;8.372;2023-04-08T01:14:56;9.60;99.90
12434;DHT22;6281;49.038;8.372;2023-04-08T01:17:26;9.60;99.90
12434;DHT22;6281;49.038;8.372;2023-04-08T01:19:53;9.70;99.90
12434;DHT22;6281;49.038;8.372;2023-04-08T01:22:28;9.60;99.90
12434;DHT22;6281;49.038;8.372;2023-04-08T01:25:02;9.60;99.90
12434;DHT22;6281;49.038;8.372;2023-04-08T01:27:33;9.50;99.90
12434;DHT22;6281;49.038;8.372;2023-04-08T01:30:02;9.30;99.90
12434;DHT22;6281;49.038;8.372;2023-04-08T01:32:31;9.40;99.90
12434;DHT22;6281;49.038;8.372;2023-04-08T01:35:00;9.40;99.90
12434;DHT22;6281;49.038;8.372;2023-04-08T01:37:28;9.50;99.90
12434;DHT22;6281;49.038;8.372;2023-04-08T01:39:56;9.40;99.90
12434;DHT22;6281;49.038;8.372;2023-04-08T01:42:25;9.40;99.90
12434;DHT22;6281;49.038;8.372;2023-04-08T01:44:55;9.40;99.90
12434;DHT22;6281;49.038;8.372;2023-04-08T01:47:24;9.40;99.90
12434;DHT22;6281;49.038;8.372;2023-04-08T01:49:52;9.40;99.90
12434;DHT22;6281;49.038;8.372;2023-04-08T01:52:20;9.20;99.90
12434;DHT22;6281;49.038;8.372;2023-04-08T01:54:48;9.40;99.90
12434;DHT22;6281;49.038;8.372;2023-04-08T01:57:20;9.40;99.90
12434;DHT22;6281;49.038;8.372;2023-04-08T01:59:51;9.60;99.90
12434;DHT22;6281;49.038;8.372;2023-04-08T02:02:21;9.50;99.90
12434;DHT22;6281;49.038;8.372;2023-04-08T02:04:51;9.40;99.90
12434;DHT22;6281;49.038;8.372;2023-04-08T02:07:17;9.50;99.90
12434;DHT22;6281;49.038;8.372;2023-04-08T02:09:45;9.60;99.90
12434;DHT22;6281;49.038;8.372;2023-04-08T02:12:12;9.60;99.90
12434;DHT22;6281;49.038;8.372;2023-04-08T02:14:39;9.60;99.90
12434;DHT22;6281;49.038;8.372;2023-04-08T02:17:10;9.50;99.90
12434;DHT22;6281;49.038;8.372;2023-04-08T02:19:45;9.40;99.90
12434;DHT22;6281;49.038;8.372;2023-04-08T02:22:18;9.30;99.90
12434;DHT22;6281;49.038;8.372;2023-04-08T02:24:46;9.40;99.90
12434;DHT22;6281;49.038;8.372;2023-04-08T02:27:14;9.50;99.90
12434;DHT22;6281;49.038;8.372;2023-04-08T02:29:42;9.50;99.90
12434;DHT22;6281;49.038;8.372;2023-04-08T02:32:10;9.50;99.90
12434;DHT22;6281;49.038;8.372;2023-04-08T02:34:40;9.50;99.90
12434;DHT22;6281;49.038;8.372;2023-04-08T02:37:08;9.40;99.90
12434;DHT22;6281;49.038;8.372;2023-04-08T02:39:35;9.40;99.90
12434;DHT22;6281;49.038;8.372;2023-04-08T02:42:03;9.30;99.90
12434;DHT22;6281;49.038;8.372;2023-04-08T02:44:30;9.30;99.90
12434;DHT22;6281;49.038;8.372;2023-04-08T02:46:57;9.30;99.90
12434;DHT22;6281;49.038;8.372;2023-04-08T02:49:24;9.40;99.90
12434;DHT22;6281;49.038;8.372;2023-04-08T02:51:52;9.20;99.90
12434;DHT22;6281;49.038;8.372;2023-04-08T02:54:19;9.20;99.90
12434;DHT22;6281;49.038;8.372;2023-04-08T02:56:46;9.20;99.90
12434;DHT22;6281;49.038;8.372;2023-04-08T02:59:13;9.20;99.90
12434;DHT22;6281;49.038;8.372;2023-04-08T03:01:40;9.20;99.90
12434;DHT22;6281;49.038;8.372;2023-04-08T03:04:07;9.20;99.90
12434;DHT22;6281;49.038;8.372;2023-04-08T03:06:34;9.20;99.90
12434;DHT22;6281;49.038;8.372;2023-04-08T03:09:02;9.20;99.90
12434;DHT22;6281;49.038;8.372;2023-04-08T03:11:30;9.20;99.90
12434;DHT22;6281;49.038;8.372;2023-04-08T03:13:57;9.20;99.90
12434;DHT22;6281;49.038;8.372;2023-04-08T03:16:24;9.20;99.90
12434;DHT22;6281;49.038;8.372;2023-04-08T03:18:51;9.20;99.90
12434;DHT22;6281;49.038;8.372;2023-04-08T03:21:18;9.20;99.90
12434;DHT22;6281;49.038;8.372;2023-04-08T03:23:45;9.20;99.90
12434;DHT22;6281;49.038;8.372;2023-04-08T03:26:14;9.20;99.90
12434;DHT22;6281;49.038;8.372;2023-04-08T03:28:41;9.10;99.90
12434;DHT22;6281;49.038;8.372;2023-04-08T03:31:07;9.20;99.90
12434;DHT22;6281;49.038;8.372;2023-04-08T03:33:34;9.00;99.90
12434;DHT22;6281;49.038;8.372;2023-04-08T03:36:01;9.10;99.90
12434;DHT22;6281;49.038;8.372;2023-04-08T03:38:28;9.10;99.90
12434;DHT22;6281;49.038;8.372;2023-04-08T03:40:55;9.00;99.90
12434;DHT22;6281;49.038;8.372;2023-04-08T03:43:24;9.10;99.90
12434;DHT22;6281;49.038;8.372;2023-04-08T03:45:51;9.00;99.90
12434;DHT22;6281;49.038;8.372;2023-04-08T03:48:18;9.10;99.90
12434;DHT22;6281;49.038;8.372;2023-04-08T03:50:44;9.20;99.90
12434;DHT22;6281;49.038;8.372;2023-04-08T03:53:11;9.00;99.90
12434;DHT22;6281;49.038;8.372;2023-04-08T03:55:38;9.10;99.90
12434;DHT22;6281;49.038;8.372;2023-04-08T03:58:05;9.10;99.90
12434;DHT22;6281;49.038;8.372;2023-04-08T04:00:34;9.00;99.90
12434;DHT22;6281;49.038;8.372;2023-04-08T04:03:02;8.90;99.90
12434;DHT22;6281;49.038;8.372;2023-04-08T04:05:29;8.90;99.90
12434;DHT22;6281;49.038;8.372;2023-04-08T04:07:56;8.90;99.90
12434;DHT22;6281;49.038;8.372;2023-04-08T04:10:23;8.80;99.90
12434;DHT22;6281;49.038;8.372;2023-04-08T04:12:50;8.60;99.90
12434;DHT22;6281;49.038;8.372;2023-04-08T04:15:17;8.80;99.90
12434;DHT22;6281;49.038;8.372;2023-04-08T04:17:46;8.50;99.90
12434;DHT22;6281;49.038;8.372;2023-04-08T04:20:14;8.50;99.90
12434;DHT22;6281;49.038;8.372;2023-04-08T04:22:41;8.60;99.90
12434;DHT22;6281;49.038;8.372;2023-04-08T04:25:09;8.70;99.90
12434;DHT22;6281;49.038;8.372;2023-04-08T04:27:36;8.80;99.90
12434;DHT22;6281;49.038;8.372;2023-04-08T04:30:03;8.70;99.90
12434;DHT22;6281;49.038;8.372;2023-04-08T04:32:31;8.80;99.90
12434;DHT22;6281;49.038;8.372;2023-04-08T04:35:00;8.60;99.90
12434;DHT22;6281;49.038;8.372;2023-04-08T04:37:27;8.60;99.90
12434;DHT22;6281;49.038;8.372;2023-04-08T04:39:54;8.80;99.90
12434;DHT22;6281;49.038;8.372;2023-04-08T04:42:21;8.90;99.90
12434;DHT22;6281;49.038;8.372;2023-04-08T04:44:48;9.00;99.90
12434;DHT22;6281;49.038;8.372;2023-04-08T04:47:15;9.00;99.90
12434;DHT22;6281;49.038;8.372;2023-04-08T04:49:42;9.00;99.90
12434;DHT22;6281;49.038;8.372;2023-04-08T04:52:11;9.00;99.90
12434;DHT22;6281;49.038;8.372;2023-04-08T04:54:38;9.10;99.90
12434;DHT22;6281;49.038;8.372;2023-04-08T04:57:05;9.10;99.90
12434;DHT22;6281;49.038;8.372;2023-04-08T04:59:32;9.10;99.90
12434;DHT22;6281;49.038;8.372;2023-04-08T05:02:00;9.10;99.90
12434;DHT22;6281;49.038;8.372;2023-04-08T05:04:27;9.10;99.90
12434;DHT22;6281;49.038;8.372;2023-04-08T05:06:54;9.10;99.90
12434;DHT22;6281;49.038;8.372;2023-04-08T05:09:22;9.10;99.90
12434;DHT22;6281;49.038;8.372;2023-04-08T05:11:49;9.10;99.90
12434;DHT22;6281;49.038;8.372;2023-04-08T05:14:16;9.00;99.90
12434;DHT22;6281;49.038;8.372;2023-04-08T05:16:43;9.10;99.90
12434;DHT22;6281;49.038;8.372;2023-04-08T05:19:10;9.10;99.90
12434;DHT22;6281;49.038;8.372;2023-04-08T05:21:37;9.00;99.90
12434;DHT22;6281;49.038;8.372;2023-04-08T05:24:04;8.90;99.90
12434;DHT22;6281;49.038;8.372;2023-04-08T05:26:32;9.00;99.90
12434;DHT22;6281;49.038;8.372;2023-04-08T05:28:59;8.90;99.90
12434;DHT22;6281;49.038;8.372;2023-04-08T05:31:27;9.10;99.90
12434;DHT22;6281;49.038;8.372;2023-04-08T05:33:54;9.10;99.90
12434;DHT22;6281;49.038;8.372;2023-04-08T05:36:21;9.20;99.90
12434;DHT22;6281;49.038;8.372;2023-04-08T05:38:48;9.30;99.90
12434;DHT22;6281;49.038;8.372;2023-04-08T05:41:15;9.40;99.90
12434;DHT22;6281;49.038;8.372;2023-04-08T05:43:43;9.50;99.90
12434;DHT22;6281;49.038;8.372;2023-04-08T05:46:10;9.50;99.90
12434;DHT22;6281;49.038;8.372;2023-04-08T05:48:37;9.40;99.90
12434;DHT22;6281;49.038;8.372;2023-04-08T05:51:04;9.40;99.90
12434;DHT22;6281;49.038;8.372;2023-04-08T05:53:31;9.40;99.90
12434;DHT22;6281;49.038;8.372;2023-04-08T05:55:58;9.50;99.90
12434;DHT22;6281;49.038;8.372;2023-04-08T05:58:25;9.50;99.90
12434;DHT22;6281;49.038;8.372;2023-04-08T06:00:53;9.30;99.90
12434;DHT22;6281;49.038;8.372;2023-04-08T06:03:21;9.40;99.90
12434;DHT22;6281;49.038;8.372;2023-04-08T06:05:47;9.40;99.90
12434;DHT22;6281;49.038;8.372;2023-04-08T06:08:14;9.50;99.90
12434;DHT22;6281;49.038;8.372;2023-04-08T06:10:47;9.50;99.90
12434;DHT22;6281;49.038;8.372;2023-04-08T06:13:14;9.50;99.90
12434;DHT22;6281;49.038;8.372;2023-04-08T06:15:41;9.60;99.90
12434;DHT22;6281;49.038;8.372;2023-04-08T06:18:09;9.60;99.90
12434;DHT22;6281;49.038;8.372;2023-04-08T06:20:36;9.60;99.90
12434;DHT22;6281;49.038;8.372;2023-04-08T06:23:03;9.60;99.90
12434;DHT22;6281;49.038;8.372;2023-04-08T06:25:31;9.70;99.90
12434;DHT22;6281;49.038;8.372;2023-04-08T06:27:58;9.70;99.90
12434;DHT22;6281;49.038;8.372;2023-04-08T06:30:25;9.60;99.90
12434;DHT22;6281;49.038;8.372;2023-04-08T06:32:54;9.60;99.90
12434;DHT22;6281;49.038;8.372;2023-04-08T06:35:22;9.60;99.90
12434;DHT22;6281;49.038;8.372;2023-04-08T06:37:49;9.80;99.90
12434;DHT22;6281;49.038;8.372;2023-04-08T06:40:16;9.80;99.90
12434;DHT22;6281;49.038;8.372;2023-04-08T06:42:43;9.70;99.90
12434;DHT22;6281;49.038;8.372;2023-04-08T06:45:10;9.70;99.90
12434;DHT22;6281;49.038;8.372;2023-04-08T06:47:37;9.80;99.90
12434;DHT22;6281;49.038;8.372;2023-04-08T06:50:05;9.60;99.90
12434;DHT22;6281;49.038;8.372;2023-04-08T06:52:34;9.60;99.90
12434;DHT22;6281;49.038;8.372;2023-04-08T06:55:01;9.70;99.90
12434;DHT22;6281;49.038;8.372;2023-04-08T06:57:27;9.80;99.90
12434;DHT22;6281;49.038;8.372;2023-04-08T06:59:54;9.90;99.90
12434;DHT22;6281;49.038;8.372;2023-04-08T07:02:21;9.60;99.90
12434;DHT22;6281;49.038;8.372;2023-04-08T07:04:48;9.90;99.90
12434;DHT22;6281;49.038;8.372;2023-04-08T07:07:15;10.00;99.90
12434;DHT22;6281;49.038;8.372;2023-04-08T07:09:44;10.10;99.90
12434;DHT22;6281;49.038;8.372;2023-04-08T07:12:11;9.90;99.90
12434;DHT22;6281;49.038;8.372;2023-04-08T07:14:38;10.10;99.90
12434;DHT22;6281;49.038;8.372;2023-04-08T07:17:05;10.00;99.90
12434;DHT22;6281;49.038;8.372;2023-04-08T07:19:32;9.90;99.90
12434;DHT22;6281;49.038;8.372;2023-04-08T07:21:59;10.30;99.90
12434;DHT22;6281;49.038;8.372;2023-04-08T07:24:26;10.30;99.90
12434;DHT22;6281;49.038;8.372;2023-04-08T07:26:54;10.20;99.90
12434;DHT22;6281;49.038;8.372;2023-04-08T07:29:21;10.20;99.90
12434;DHT22;6281;49.038;8.372;2023-04-08T07:31:48;10.10;99.90
12434;DHT22;6281;49.038;8.372;2023-04-08T07:34:16;10.10;99.90
12434;DHT22;6281;49.038;8.372;2023-04-08T07:36:43;10.20;99.90
12434;DHT22;6281;49.038;8.372;2023-04-08T07:39:10;9.90;99.90
12434;DHT22;6281;49.038;8.372;2023-04-08T07:41:37;10.10;99.90
12434;DHT22;6281;49.038;8.372;2023-04-08T07:44:05;10.20;99.90
12434;DHT22;6281;49.038;8.372;2023-04-08T07:46:35;10.30;99.90
12434;DHT22;6281;49.038;8.372;2023-04-08T07:49:02;10.10;99.90
12434;DHT22;6281;49.038;8.372;2023-04-08T07:51:29;10.10;99.90
12434;DHT22;6281;49.038;8.372;2023-04-08T07:53:56;10.40;99.90
12434;DHT22;6281;49.038;8.372;2023-04-08T07:56:23;10.60;99.90
12434;DHT22;6281;49.038;8.372;2023-04-08T07:58:50;10.60;99.90
12434;DHT22;6281;49.038;8.372;2023-04-08T08:01:21;10.60;99.90
12434;DHT22;6281;49.038;8.372;2023-04-08T08:03:49;10.50;99.90
12434;DHT22;6281;49.038;8.372;2023-04-08T08:06:16;10.60;99.90
12434;DHT22;6281;49.038;8.372;2023-04-08T08:08:43;10.90;99.90
12434;DHT22;6281;49.038;8.372;2023-04-08T08:11:10;10.60;99.90
12434;DHT22;6281;49.038;8.372;2023-04-08T08:13:37;10.90;99.90
12434;DHT22;6281;49.038;8.372;2023-04-08T08:16:04;11.10;99.90
12434;DHT22;6281;49.038;8.372;2023-04-08T08:18:37;11.20;99.90
12434;DHT22;6281;49.038;8.372;2023-04-08T08:21:04;11.00;99.90
12434;DHT22;6281;49.038;8.372;2023-04-08T08:23:32;11.10;99.90
12434;DHT22;6281;49.038;8.372;2023-04-08T08:25:59;11.30;99.90
12434;DHT22;6281;49.038;8.372;2023-04-08T08:28:26;11.30;99.90
12434;DHT22;6281;49.038;8.372;2023-04-08T08:30:53;11.50;99.90
12434;DHT22;6281;49.038;8.372;2023-04-08T08:33:20;10.90;99.90
12434;DHT22;6281;49.038;8.372;2023-04-08T08:35:48;11.10;99.90
12434;DHT22;6281;49.038;8.372;2023-04-08T08:38:16;11.20;99.90
12434;DHT22;6281;49.038;8.372;2023-04-08T08:40:43;11.40;99.90
12434;DHT22;6281;49.038;8.372;2023-04-08T08:43:10;11.30;99.90
12434;DHT22;6281;49.038;8.372;2023-04-08T08:45:38;11.00;99.90
12434;DHT22;6281;49.038;8.372;2023-04-08T08:48:06;11.30;99.90
12434;DHT22;6281;49.038;8.372;2023-04-08T08:50:33;11.90;99.90
12434;DHT22;6281;49.038;8.372;2023-04-08T08:53:02;12.00;99.90
12434;DHT22;6281;49.038;8.372;2023-04-08T08:55:30;11.90;99.90
12434;DHT22;6281;49.038;8.372;2023-04-08T08:57:58;11.70;99.90
12434;DHT22;6281;49.038;8.372;2023-04-08T09:00:32;11.60;99.90
12434;DHT22;6281;49.038;8.372;2023-04-08T09:03:14;11.40;99.90
12434;DHT22;6281;49.038;8.372;2023-04-08T09:05:49;11.80;99.90
12434;DHT22;6281;49.038;8.372;2023-04-08T09:08:27;12.50;99.90
12434;DHT22;6281;49.038;8.372;2023-04-08T09:10:55;12.50;99.90
12434;DHT22;6281;49.038;8.372;2023-04-08T09:13:22;12.40;99.90
12434;DHT22;6281;49.038;8.372;2023-04-08T09:16:03;12.70;99.90
12434;DHT22;6281;49.038;8.372;2023-04-08T09:18:30;13.00;99.90
12434;DHT22;6281;49.038;8.372;2023-04-08T09:20:59;12.70;99.90
12434;DHT22;6281;49.038;8.372;2023-04-08T09:23:39;12.70;99.90
12434;DHT22;6281;49.038;8.372;2023-04-08T09:26:07;12.60;99.90
12434;DHT22;6281;49.038;8.372;2023-04-08T09:28:35;13.00;99.90
12434;DHT22;6281;49.038;8.372;2023-04-08T09:31:17;13.40;99.90
12434;DHT22;6281;49.038;8.372;2023-04-08T09:33:45;14.00;99.90
12434;DHT22;6281;49.038;8.372;2023-04-08T09:36:13;13.20;99.90
12434;DHT22;6281;49.038;8.372;2023-04-08T09:38:42;13.80;99.90
12434;DHT22;6281;49.038;8.372;2023-04-08T09:41:12;14.10;99.90
12434;DHT22;6281;49.038;8.372;2023-04-08T09:43:42;16.10;99.90
12434;DHT22;6281;49.038;8.372;2023-04-08T09:46:14;17.20;99.90
12434;DHT22;6281;49.038;8.372;2023-04-08T09:48:47;18.40;99.90
12434;DHT22;6281;49.038;8.372;2023-04-08T09:51:16;18.80;97.70
12434;DHT22;6281;49.038;8.372;2023-04-08T09:53:49;17.40;99.90
12434;DHT22;6281;49.038;8.372;2023-04-08T09:56:20;19.50;99.90
12434;DHT22;6281;49.038;8.372;2023-04-08T09:58:51;17.90;99.90
12434;DHT22;6281;49.038;8.372;2023-04-08T10:01:25;16.40;99.90
12434;DHT22;6281;49.038;8.372;2023-04-08T10:03:54;15.60;99.90
12434;DHT22;6281;49.038;8.372;2023-04-08T10:06:27;16.10;99.90
12434;DHT22;6281;49.038;8.372;2023-04-08T10:08:57;16.10;99.90
12434;DHT22;6281;49.038;8.372;2023-04-08T10:11:25;16.20;99.90
12434;DHT22;6281;49.038;8.372;2023-04-08T10:13:52;16.20;99.90
12434;DHT22;6281;49.038;8.372;2023-04-08T10:16:21;15.70;99.90
12434;DHT22;6281;49.038;8.372;2023-04-08T10:18:49;15.30;99.90
12434;DHT22;6281;49.038;8.372;2023-04-08T10:21:33;14.70;99.90
12434;DHT22;6281;49.038;8.372;2023-04-08T10:24:02;15.30;99.90
12434;DHT22;6281;49.038;8.372;2023-04-08T10:26:34;16.10;99.90
12434;DHT22;6281;49.038;8.372;2023-04-08T10:32:28;16.30;99.90
12434;DHT22;6281;49.038;8.372;2023-04-08T10:34:55;15.70;99.90
12434;DHT22;6281;49.038;8.372;2023-04-08T10:37:22;15.50;99.90
12434;DHT22;6281;49.038;8.372;2023-04-08T10:39:53;15.70;99.90
12434;DHT22;6281;49.038;8.372;2023-04-08T10:42:26;14.70;99.90
12434;DHT22;6281;49.038;8.372;2023-04-08T10:44:53;14.70;99.90
12434;DHT22;6281;49.038;8.372;2023-04-08T10:47:24;15.20;99.90
12434;DHT22;6281;49.038;8.372;2023-04-08T10:49:52;15.20;99.90
12434;DHT22;6281;49.038;8.372;2023-04-08T10:52:19;14.90;99.90
12434;DHT22;6281;49.038;8.372;2023-04-08T10:54:47;14.60;99.90
12434;DHT22;6281;49.038;8.372;2023-04-08T10:57:22;14.10;99.90
12434;DHT22;6281;49.038;8.372;2023-04-08T10:59:49;14.40;99.90
12434;DHT22;6281;49.038;8.372;2023-04-08T11:02:16;14.40;99.90
12434;DHT22;6281;49.038;8.372;2023-04-08T11:04:43;14.30;99.90
12434;DHT22;6281;49.038;8.372;2023-04-08T11:07:12;13.70;99.90
12434;DHT22;6281;49.038;8.372;2023-04-08T11:09:40;13.60;99.90
12434;DHT22;6281;49.038;8.372;2023-04-08T11:12:07;13.20;99.90
12434;DHT22;6281;49.038;8.372;2023-04-08T11:14:35;13.40;99.90
12434;DHT22;6281;49.038;8.372;2023-04-08T11:17:03;13.80;99.90
12434;DHT22;6281;49.038;8.372;2023-04-08T11:19:30;13.50;99.90
12434;DHT22;6281;49.038;8.372;2023-04-08T11:21:57;13.30;99.90
12434;DHT22;6281;49.038;8.372;2023-04-08T11:24:24;13.40;99.90
12434;DHT22;6281;49.038;8.372;2023-04-08T11:26:52;13.40;99.90
12434;DHT22;6281;49.038;8.372;2023-04-08T11:29:19;13.50;99.90
12434;DHT22;6281;49.038;8.372;2023-04-08T11:31:48;13.40;99.90
12434;DHT22;6281;49.038;8.372;2023-04-08T11:34:21;13.50;99.70
12434;DHT22;6281;49.038;8.372;2023-04-08T11:36:49;13.40;95.60
12434;DHT22;6281;49.038;8.372;2023-04-08T11:39:15;13.50;99.90
12434;DHT22;6281;49.038;8.372;2023-04-08T11:41:42;13.60;99.90
12434;DHT22;6281;49.038;8.372;2023-04-08T11:44:11;13.40;99.90
12434;DHT22;6281;49.038;8.372;2023-04-08T11:46:38;13.10;99.90
12434;DHT22;6281;49.038;8.372;2023-04-08T11:49:10;13.20;99.90
12434;DHT22;6281;49.038;8.372;2023-04-08T11:51:57;13.20;99.90
12434;DHT22;6281;49.038;8.372;2023-04-08T11:54:28;13.00;99.90
12434;DHT22;6281;49.038;8.372;2023-04-08T11:56:56;13.00;99.90
12434;DHT22;6281;49.038;8.372;2023-04-08T11:59:23;13.00;99.90
12434;DHT22;6281;49.038;8.372;2023-04-08T12:01:50;13.40;99.90
12434;DHT22;6281;49.038;8.372;2023-04-08T12:04:19;13.30;99.90
12434;DHT22;6281;49.038;8.372;2023-04-08T12:06:45;13.50;99.90
12434;DHT22;6281;49.038;8.372;2023-04-08T12:09:12;13.90;99.90
12434;DHT22;6281;49.038;8.372;2023-04-08T12:11:40;14.10;99.90
12434;DHT22;6281;49.038;8.372;2023-04-08T12:14:07;14.40;99.90
12434;DHT22;6281;49.038;8.372;2023-04-08T12:16:36;14.60;99.90
12434;DHT22;6281;49.038;8.372;2023-04-08T12:19:03;14.60;99.90
12434;DHT22;6281;49.038;8.372;2023-04-08T12:21:32;14.30;99.90
12434;DHT22;6281;49.038;8.372;2023-04-08T12:23:59;13.90;99.90
12434;DHT22;6281;49.038;8.372;2023-04-08T12:26:29;13.80;99.90
12434;DHT22;6281;49.038;8.372;2023-04-08T12:28:56;13.90;99.90
12434;DHT22;6281;49.038;8.372;2023-04-08T12:31:23;13.60;99.90
12434;DHT22;6281;49.038;8.372;2023-04-08T12:33:52;13.70;99.90
12434;DHT22;6281;49.038;8.372;2023-04-08T12:36:18;13.80;99.90
12434;DHT22;6281;49.038;8.372;2023-04-08T12:38:47;13.70;99.90
12434;DHT22;6281;49.038;8.372;2023-04-08T12:41:13;13.70;99.90
12434;DHT22;6281;49.038;8.372;2023-04-08T12:43:40;13.70;99.90
12434;DHT22;6281;49.038;8.372;2023-04-08T12:46:09;13.30;99.90
12434;DHT22;6281;49.038;8.372;2023-04-08T12:48:36;13.60;99.90
12434;DHT22;6281;49.038;8.372;2023-04-08T12:51:03;13.50;99.90
12434;DHT22;6281;49.038;8.372;2023-04-08T12:53:30;13.60;99.90
12434;DHT22;6281;49.038;8.372;2023-04-08T12:55:58;13.80;99.90
12434;DHT22;6281;49.038;8.372;2023-04-08T12:58:25;13.70;99.90
12434;DHT22;6281;49.038;8.372;2023-04-08T13:00:53;13.60;99.90
12434;DHT22;6281;49.038;8.372;2023-04-08T13:03:37;13.80;99.90
12434;DHT22;6281;49.038;8.372;2023-04-08T13:06:05;13.80;99.90
12434;DHT22;6281;49.038;8.372;2023-04-08T13:08:32;13.90;98.40
12434;DHT22;6281;49.038;8.372;2023-04-08T13:10:59;13.40;96.60
12434;DHT22;6281;49.038;8.372;2023-04-08T13:13:26;13.60;95.60
12434;DHT22;6281;49.038;8.372;2023-04-08T13:15:53;13.80;99.90
12434;DHT22;6281;49.038;8.372;2023-04-08T13:18:22;14.10;99.90
12434;DHT22;6281;49.038;8.372;2023-04-08T13:20:52;14.00;86.70
12434;DHT22;6281;49.038;8.372;2023-04-08T13:23:20;14.60;82.30
12434;DHT22;6281;49.038;8.372;2023-04-08T13:25:50;15.10;86.90
12434;DHT22;6281;49.038;8.372;2023-04-08T13:28:19;15.10;80.60
12434;DHT22;6281;49.038;8.372;2023-04-08T13:30:51;15.70;85.50
12434;DHT22;6281;49.038;8.372;2023-04-08T13:33:20;15.70;74.30
12434;DHT22;6281;49.038;8.372;2023-04-08T13:35:51;15.20;73.60
12434;DHT22;6281;49.038;8.372;2023-04-08T13:38:18;15.30;71.90
12434;DHT22;6281;49.038;8.372;2023-04-08T13:40:45;14.80;80.90
12434;DHT22;6281;49.038;8.372;2023-04-08T13:43:14;14.40;77.20
12434;DHT22;6281;49.038;8.372;2023-04-08T13:45:41;14.00;78.70
12434;DHT22;6281;49.038;8.372;2023-04-08T13:48:09;13.70;90.50
12434;DHT22;6281;49.038;8.372;2023-04-08T13:50:36;13.70;99.90
12434;DHT22;6281;49.038;8.372;2023-04-08T13:53:06;13.80;99.90
12434;DHT22;6281;49.038;8.372;2023-04-08T13:55:32;13.60;94.20
12434;DHT22;6281;49.038;8.372;2023-04-08T13:57:59;14.10;99.00
12434;DHT22;6281;49.038;8.372;2023-04-08T14:00:28;14.20;99.90
12434;DHT22;6281;49.038;8.372;2023-04-08T14:02:55;14.10;99.90
12434;DHT22;6281;49.038;8.372;2023-04-08T14:05:22;14.40;99.90
12434;DHT22;6281;49.038;8.372;2023-04-08T14:07:49;14.60;99.90
12434;DHT22;6281;49.038;8.372;2023-04-08T14:10:20;14.20;90.80
12434;DHT22;6281;49.038;8.372;2023-04-08T14:12:49;14.50;99.90
12434;DHT22;6281;49.038;8.372;2023-04-08T14:15:21;14.50;99.90
12434;DHT22;6281;49.038;8.372;2023-04-08T14:17:50;14.30;99.90
12434;DHT22;6281;49.038;8.372;2023-04-08T14:20:18;14.40;99.90
12434;DHT22;6281;49.038;8.372;2023-04-08T14:22:50;14.20;99.90
12434;DHT22;6281;49.038;8.372;2023-04-08T14:25:23;14.10;99.90
12434;DHT22;6281;49.038;8.372;2023-04-08T14:27:52;14.10;99.90
12434;DHT22;6281;49.038;8.372;2023-04-08T14:30:19;14.60;99.90
12434;DHT22;6281;49.038;8.372;2023-04-08T14:32:46;14.70;99.90
12434;DHT22;6281;49.038;8.372;2023-04-08T14:35:13;14.30;99.90
12434;DHT22;6281;49.038;8.372;2023-04-08T14:37:48;14.40;99.90
12434;DHT22;6281;49.038;8.372;2023-04-08T14:40:17;14.60;99.90
12434;DHT22;6281;49.038;8.372;2023-04-08T14:42:46;14.80;99.90
12434;DHT22;6281;49.038;8.372;2023-04-08T14:45:14;14.70;99.90
12434;DHT22;6281;49.038;8.372;2023-04-08T14:47:48;14.80;99.90
12434;DHT22;6281;49.038;8.372;2023-04-08T14:50:20;15.10;99.90
12434;DHT22;6281;49.038;8.372;2023-04-08T14:52:50;15.20;99.90
12434;DHT22;6281;49.038;8.372;2023-04-08T14:55:22;15.00;99.90
12434;DHT22;6281;49.038;8.372;2023-04-08T14:57:56;15.00;99.90
12434;DHT22;6281;49.038;8.372;2023-04-08T15:00:23;15.30;99.90
12434;DHT22;6281;49.038;8.372;2023-04-08T15:02:55;14.70;99.90
12434;DHT22;6281;49.038;8.372;2023-04-08T15:05:22;14.30;99.90
12434;DHT22;6281;49.038;8.372;2023-04-08T15:07:50;14.20;99.90
12434;DHT22;6281;49.038;8.372;2023-04-08T15:10:17;14.10;99.90
12434;DHT22;6281;49.038;8.372;2023-04-08T15:12:44;13.80;99.90
12434;DHT22;6281;49.038;8.372;2023-04-08T15:15:13;14.10;99.90
12434;DHT22;6281;49.038;8.372;2023-04-08T15:17:40;14.20;99.90
12434;DHT22;6281;49.038;8.372;2023-04-08T15:20:11;14.00;99.90
12434;DHT22;6281;49.038;8.372;2023-04-08T15:22:38;14.10;99.90
12434;DHT22;6281;49.038;8.372;2023-04-08T15:25:05;13.70;99.90
12434;DHT22;6281;49.038;8.372;2023-04-08T15:27:32;13.80;99.90
12434;DHT22;6281;49.038;8.372;2023-04-08T15:30:00;14.00;99.90
12434;DHT22;6281;49.038;8.372;2023-04-08T15:32:29;13.80;99.90
12434;DHT22;6281;49.038;8.372;2023-04-08T15:34:56;13.70;99.90
12434;DHT22;6281;49.038;8.372;2023-04-08T15:37:23;13.70;99.90
12434;DHT22;6281;49.038;8.372;2023-04-08T15:39:50;13.40;99.90
12434;DHT22;6281;49.038;8.372;2023-04-08T15:42:18;13.40;99.90
12434;DHT22;6281;49.038;8.372;2023-04-08T15:44:45;13.70;99.90
12434;DHT22;6281;49.038;8.372;2023-04-08T15:47:12;13.50;99.90
12434;DHT22;6281;49.038;8.372;2023-04-08T15:49:42;13.60;99.90
12434;DHT22;6281;49.038;8.372;2023-04-08T15:52:09;13.40;99.90
12434;DHT22;6281;49.038;8.372;2023-04-08T15:54:37;13.30;99.90
12434;DHT22;6281;49.038;8.372;2023-04-08T15:57:04;13.10;99.90
12434;DHT22;6281;49.038;8.372;2023-04-08T15:59:31;13.40;99.90
12434;DHT22;6281;49.038;8.372;2023-04-08T16:01:58;13.20;99.90